หน้าหลัก
METAR-TAF:

METAR-TAF

ท่าอากาศยาน :

ปงตวซ, ฝรั่งเศส

ละติจูด: 49-05-48N, ลองจิจูด: 002-02-27E, ความสูง: 99 ม.

การสังเกตสภาพอากาศปัจจุบัน

รายงานได้ทำขึ้นเมื่อ 37 นาทีที่แล้ว ณ เวลา 03:30 UTC
ลม 2 นอตจากตะวันตก
อุณหภูมิ 6°C
ความชื้น 100%
ความกดอากาศ 1019 hPa
ทัศนวิสัย 10 กม. หรือมากกว่า
ไม่มีเมฆต่ำกว่า 1,500 ม. และไม่มีเมฆคิวมูโลนิมบัส

METAR: LFPT 130330Z AUTO 26002KT CAVOK 06/06 Q1019

เวลา: 06:07 (04:07 UTC)


TAF: หายไป

สังเกตการณ์สภาพอากาศและพยากรณ์อากาศของสนามบินมากกว่า 4000 แห่ง (รายงาน METAR และ TAF).

สถานีที่ดูได้จะแสดงไว้ด้วยจุดสีเหลืองและสีแดงบนแผนที่.

เลื่อนเมาส์ไปเหนือจุดเพื่อดูชื่อสถานี.

แล้วคลิกเพื่อดูสังเกตการณ์และการพยากรณ์สภาพอากาศ.

ในการเปลี่ยนแผนที่: คลิกที่ปุ่มสีเขียวที่มีกากบาทสีดำเพื่อซูมเข้า; ที่ปุ่มสีเขียวที่มีขีดเพื่อซูมออก; หรือที่ลูกศรสีเขียวเพื่อไปยังแผนที่ที่อยู่ติดกัน.


METAR-TAF: